sensor_id;sensor_type;location;lat;lon;timestamp;P1;durP1;ratioP1;P2;durP2;ratioP2
70467;SDS011;57934;51.532;7.684;2023-09-19T00:00:21;5.03;;;2.20;;
70467;SDS011;57934;51.532;7.684;2023-09-19T00:02:54;6.85;;;2.28;;
70467;SDS011;57934;51.532;7.684;2023-09-19T00:05:25;6.88;;;2.50;;
70467;SDS011;57934;51.532;7.684;2023-09-19T00:07:54;6.97;;;2.70;;
70467;SDS011;57934;51.532;7.684;2023-09-19T00:10:24;4.45;;;2.47;;
70467;SDS011;57934;51.532;7.684;2023-09-19T00:12:57;6.57;;;2.15;;
70467;SDS011;57934;51.532;7.684;2023-09-19T00:15:25;7.50;;;2.17;;
70467;SDS011;57934;51.532;7.684;2023-09-19T00:17:55;8.85;;;2.45;;
70467;SDS011;57934;51.532;7.684;2023-09-19T00:20:21;6.18;;;2.35;;
70467;SDS011;57934;51.532;7.684;2023-09-19T00:22:49;12.18;;;2.90;;
70467;SDS011;57934;51.532;7.684;2023-09-19T00:25:19;5.97;;;2.05;;
70467;SDS011;57934;51.532;7.684;2023-09-19T00:27:46;8.32;;;2.85;;
70467;SDS011;57934;51.532;7.684;2023-09-19T00:30:13;11.55;;;2.70;;
70467;SDS011;57934;51.532;7.684;2023-09-19T00:32:45;5.82;;;2.33;;
70467;SDS011;57934;51.532;7.684;2023-09-19T00:35:16;13.13;;;3.00;;
70467;SDS011;57934;51.532;7.684;2023-09-19T00:37:42;13.07;;;2.67;;
70467;SDS011;57934;51.532;7.684;2023-09-19T00:40:09;12.40;;;2.63;;
70467;SDS011;57934;51.532;7.684;2023-09-19T00:42:44;12.93;;;2.80;;
70467;SDS011;57934;51.532;7.684;2023-09-19T00:45:12;8.80;;;2.53;;
70467;SDS011;57934;51.532;7.684;2023-09-19T00:47:49;6.25;;;2.15;;
70467;SDS011;57934;51.532;7.684;2023-09-19T00:50:22;10.10;;;2.65;;
70467;SDS011;57934;51.532;7.684;2023-09-19T00:52:50;8.07;;;2.25;;
70467;SDS011;57934;51.532;7.684;2023-09-19T00:55:21;9.05;;;2.22;;
70467;SDS011;57934;51.532;7.684;2023-09-19T00:57:50;7.10;;;2.42;;
70467;SDS011;57934;51.532;7.684;2023-09-19T01:00:16;12.30;;;2.45;;
70467;SDS011;57934;51.532;7.684;2023-09-19T01:02:46;19.20;;;2.45;;
70467;SDS011;57934;51.532;7.684;2023-09-19T01:05:13;7.90;;;2.42;;
70467;SDS011;57934;51.532;7.684;2023-09-19T01:07:40;11.85;;;2.25;;
70467;SDS011;57934;51.532;7.684;2023-09-19T01:10:08;11.93;;;2.97;;
70467;SDS011;57934;51.532;7.684;2023-09-19T01:15:26;8.27;;;2.42;;
70467;SDS011;57934;51.532;7.684;2023-09-19T01:32:05;13.02;;;2.45;;
70467;SDS011;57934;51.532;7.684;2023-09-19T01:37:13;10.98;;;2.78;;
70467;SDS011;57934;51.532;7.684;2023-09-19T01:39:40;10.60;;;2.33;;
70467;SDS011;57934;51.532;7.684;2023-09-19T01:42:18;8.70;;;2.90;;
70467;SDS011;57934;51.532;7.684;2023-09-19T01:47:25;10.50;;;2.60;;
70467;SDS011;57934;51.532;7.684;2023-09-19T01:52:30;11.88;;;2.40;;
70467;SDS011;57934;51.532;7.684;2023-09-19T01:55:02;9.32;;;2.13;;
70467;SDS011;57934;51.532;7.684;2023-09-19T01:57:37;11.15;;;2.58;;
70467;SDS011;57934;51.532;7.684;2023-09-19T02:00:12;12.73;;;2.50;;
70467;SDS011;57934;51.532;7.684;2023-09-19T02:02:42;8.75;;;2.80;;
70467;SDS011;57934;51.532;7.684;2023-09-19T02:05:13;10.32;;;2.50;;
70467;SDS011;57934;51.532;7.684;2023-09-19T02:07:47;12.10;;;2.88;;
70467;SDS011;57934;51.532;7.684;2023-09-19T02:10:13;13.98;;;2.50;;
70467;SDS011;57934;51.532;7.684;2023-09-19T02:12:39;12.95;;;3.08;;
70467;SDS011;57934;51.532;7.684;2023-09-19T02:15:06;12.10;;;2.40;;
70467;SDS011;57934;51.532;7.684;2023-09-19T02:17:32;9.30;;;2.78;;
70467;SDS011;57934;51.532;7.684;2023-09-19T02:19:58;14.55;;;3.08;;
70467;SDS011;57934;51.532;7.684;2023-09-19T02:22:26;8.30;;;2.00;;
70467;SDS011;57934;51.532;7.684;2023-09-19T02:24:53;13.43;;;2.80;;
70467;SDS011;57934;51.532;7.684;2023-09-19T02:27:19;11.88;;;2.90;;
70467;SDS011;57934;51.532;7.684;2023-09-19T02:29:45;12.98;;;2.53;;
70467;SDS011;57934;51.532;7.684;2023-09-19T02:32:11;8.20;;;2.47;;
70467;SDS011;57934;51.532;7.684;2023-09-19T02:34:37;9.90;;;2.33;;
70467;SDS011;57934;51.532;7.684;2023-09-19T02:37:05;15.18;;;2.47;;
70467;SDS011;57934;51.532;7.684;2023-09-19T02:39:32;11.00;;;2.53;;
70467;SDS011;57934;51.532;7.684;2023-09-19T02:41:58;14.00;;;3.13;;
70467;SDS011;57934;51.532;7.684;2023-09-19T02:44:24;10.13;;;2.35;;
70467;SDS011;57934;51.532;7.684;2023-09-19T02:46:50;12.40;;;2.30;;
70467;SDS011;57934;51.532;7.684;2023-09-19T02:49:16;8.65;;;2.22;;
70467;SDS011;57934;51.532;7.684;2023-09-19T02:51:44;13.93;;;2.72;;
70467;SDS011;57934;51.532;7.684;2023-09-19T02:54:11;8.30;;;2.60;;
70467;SDS011;57934;51.532;7.684;2023-09-19T02:56:37;15.13;;;3.00;;
70467;SDS011;57934;51.532;7.684;2023-09-19T02:59:03;12.07;;;2.85;;
70467;SDS011;57934;51.532;7.684;2023-09-19T03:01:30;13.10;;;2.03;;
70467;SDS011;57934;51.532;7.684;2023-09-19T03:03:56;12.25;;;2.40;;
70467;SDS011;57934;51.532;7.684;2023-09-19T03:06:22;17.23;;;2.65;;
70467;SDS011;57934;51.532;7.684;2023-09-19T03:08:50;11.50;;;2.25;;
70467;SDS011;57934;51.532;7.684;2023-09-19T03:11:17;10.18;;;2.60;;
70467;SDS011;57934;51.532;7.684;2023-09-19T03:13:52;14.63;;;2.63;;
70467;SDS011;57934;51.532;7.684;2023-09-19T03:16:20;11.80;;;2.67;;
70467;SDS011;57934;51.532;7.684;2023-09-19T03:18:48;11.45;;;2.80;;
70467;SDS011;57934;51.532;7.684;2023-09-19T03:21:16;10.98;;;2.65;;
70467;SDS011;57934;51.532;7.684;2023-09-19T03:23:43;9.07;;;2.05;;
70467;SDS011;57934;51.532;7.684;2023-09-19T03:26:12;11.77;;;2.75;;
70467;SDS011;57934;51.532;7.684;2023-09-19T03:28:41;9.38;;;2.75;;
70467;SDS011;57934;51.532;7.684;2023-09-19T03:31:09;12.50;;;2.63;;
70467;SDS011;57934;51.532;7.684;2023-09-19T03:33:36;10.02;;;2.50;;
70467;SDS011;57934;51.532;7.684;2023-09-19T03:36:03;11.23;;;2.40;;
70467;SDS011;57934;51.532;7.684;2023-09-19T03:38:33;14.60;;;2.65;;
70467;SDS011;57934;51.532;7.684;2023-09-19T03:41:01;8.15;;;2.05;;
70467;SDS011;57934;51.532;7.684;2023-09-19T03:43:27;12.63;;;2.80;;
70467;SDS011;57934;51.532;7.684;2023-09-19T03:45:55;14.10;;;2.60;;
70467;SDS011;57934;51.532;7.684;2023-09-19T03:48:23;13.02;;;2.30;;
70467;SDS011;57934;51.532;7.684;2023-09-19T03:50:50;9.80;;;2.30;;
70467;SDS011;57934;51.532;7.684;2023-09-19T03:53:19;13.02;;;2.53;;
70467;SDS011;57934;51.532;7.684;2023-09-19T03:55:45;7.93;;;2.38;;
70467;SDS011;57934;51.532;7.684;2023-09-19T03:58:12;8.77;;;2.50;;
70467;SDS011;57934;51.532;7.684;2023-09-19T04:00:39;11.27;;;2.58;;
70467;SDS011;57934;51.532;7.684;2023-09-19T04:03:05;10.32;;;2.83;;
70467;SDS011;57934;51.532;7.684;2023-09-19T04:05:32;8.73;;;2.58;;
70467;SDS011;57934;51.532;7.684;2023-09-19T04:08:00;14.02;;;2.95;;
70467;SDS011;57934;51.532;7.684;2023-09-19T04:10:26;7.63;;;2.40;;
70467;SDS011;57934;51.532;7.684;2023-09-19T04:12:54;9.57;;;2.50;;
70467;SDS011;57934;51.532;7.684;2023-09-19T04:15:23;10.82;;;2.10;;
70467;SDS011;57934;51.532;7.684;2023-09-19T04:17:51;18.33;;;2.88;;
70467;SDS011;57934;51.532;7.684;2023-09-19T04:20:18;12.43;;;2.10;;
70467;SDS011;57934;51.532;7.684;2023-09-19T04:22:51;11.90;;;2.35;;
70467;SDS011;57934;51.532;7.684;2023-09-19T04:25:17;13.07;;;2.63;;
70467;SDS011;57934;51.532;7.684;2023-09-19T04:27:44;12.45;;;2.63;;
70467;SDS011;57934;51.532;7.684;2023-09-19T04:30:10;7.30;;;1.98;;
70467;SDS011;57934;51.532;7.684;2023-09-19T04:32:38;14.20;;;2.83;;
70467;SDS011;57934;51.532;7.684;2023-09-19T04:35:06;13.20;;;2.90;;
70467;SDS011;57934;51.532;7.684;2023-09-19T04:37:40;14.07;;;2.45;;
70467;SDS011;57934;51.532;7.684;2023-09-19T04:40:07;11.13;;;2.20;;
70467;SDS011;57934;51.532;7.684;2023-09-19T04:42:43;13.73;;;2.67;;
70467;SDS011;57934;51.532;7.684;2023-09-19T04:45:09;11.48;;;2.50;;
70467;SDS011;57934;51.532;7.684;2023-09-19T04:47:36;10.25;;;2.80;;
70467;SDS011;57934;51.532;7.684;2023-09-19T04:50:09;8.48;;;2.28;;
70467;SDS011;57934;51.532;7.684;2023-09-19T04:52:42;13.73;;;2.50;;
70467;SDS011;57934;51.532;7.684;2023-09-19T04:55:10;15.85;;;2.75;;
70467;SDS011;57934;51.532;7.684;2023-09-19T04:57:45;14.20;;;3.08;;
70467;SDS011;57934;51.532;7.684;2023-09-19T05:00:19;14.20;;;2.17;;
70467;SDS011;57934;51.532;7.684;2023-09-19T05:02:50;11.70;;;2.50;;
70467;SDS011;57934;51.532;7.684;2023-09-19T05:05:17;11.73;;;2.00;;
70467;SDS011;57934;51.532;7.684;2023-09-19T05:07:45;9.38;;;1.92;;
70467;SDS011;57934;51.532;7.684;2023-09-19T05:10:12;10.32;;;2.20;;
70467;SDS011;57934;51.532;7.684;2023-09-19T05:12:38;11.38;;;2.40;;
70467;SDS011;57934;51.532;7.684;2023-09-19T05:15:05;8.60;;;2.20;;
70467;SDS011;57934;51.532;7.684;2023-09-19T05:17:35;9.52;;;2.30;;
70467;SDS011;57934;51.532;7.684;2023-09-19T05:20:04;8.57;;;2.10;;
70467;SDS011;57934;51.532;7.684;2023-09-19T05:22:41;12.07;;;2.70;;
70467;SDS011;57934;51.532;7.684;2023-09-19T05:25:09;14.15;;;2.90;;
70467;SDS011;57934;51.532;7.684;2023-09-19T05:27:35;10.60;;;2.58;;
70467;SDS011;57934;51.532;7.684;2023-09-19T05:30:02;12.52;;;2.50;;
70467;SDS011;57934;51.532;7.684;2023-09-19T05:32:28;15.15;;;2.70;;
70467;SDS011;57934;51.532;7.684;2023-09-19T05:34:54;8.50;;;2.47;;
70467;SDS011;57934;51.532;7.684;2023-09-19T05:37:22;8.52;;;2.45;;
70467;SDS011;57934;51.532;7.684;2023-09-19T05:39:49;11.52;;;2.60;;
70467;SDS011;57934;51.532;7.684;2023-09-19T05:42:15;10.32;;;2.25;;
70467;SDS011;57934;51.532;7.684;2023-09-19T05:44:41;11.65;;;2.47;;
70467;SDS011;57934;51.532;7.684;2023-09-19T05:47:07;10.00;;;2.55;;
70467;SDS011;57934;51.532;7.684;2023-09-19T05:49:37;15.02;;;2.67;;
70467;SDS011;57934;51.532;7.684;2023-09-19T05:52:08;10.77;;;2.33;;
70467;SDS011;57934;51.532;7.684;2023-09-19T05:54:34;9.82;;;2.80;;
70467;SDS011;57934;51.532;7.684;2023-09-19T05:57:00;10.13;;;2.60;;
70467;SDS011;57934;51.532;7.684;2023-09-19T05:59:27;15.02;;;2.70;;
70467;SDS011;57934;51.532;7.684;2023-09-19T06:01:53;10.65;;;2.35;;
70467;SDS011;57934;51.532;7.684;2023-09-19T06:04:19;9.70;;;2.70;;
70467;SDS011;57934;51.532;7.684;2023-09-19T06:06:45;9.65;;;2.05;;
70467;SDS011;57934;51.532;7.684;2023-09-19T06:09:14;17.98;;;3.15;;
70467;SDS011;57934;51.532;7.684;2023-09-19T06:11:44;12.43;;;2.80;;
70467;SDS011;57934;51.532;7.684;2023-09-19T06:14:10;9.35;;;2.53;;
70467;SDS011;57934;51.532;7.684;2023-09-19T06:16:37;10.85;;;2.60;;
70467;SDS011;57934;51.532;7.684;2023-09-19T06:19:07;12.98;;;2.20;;
70467;SDS011;57934;51.532;7.684;2023-09-19T06:21:36;15.45;;;2.92;;
70467;SDS011;57934;51.532;7.684;2023-09-19T06:24:02;12.40;;;2.50;;
70467;SDS011;57934;51.532;7.684;2023-09-19T06:26:28;15.25;;;2.95;;
70467;SDS011;57934;51.532;7.684;2023-09-19T06:28:55;14.70;;;2.80;;
70467;SDS011;57934;51.532;7.684;2023-09-19T06:31:21;15.55;;;3.45;;
70467;SDS011;57934;51.532;7.684;2023-09-19T06:33:52;12.93;;;2.47;;
70467;SDS011;57934;51.532;7.684;2023-09-19T06:36:18;9.07;;;2.20;;
70467;SDS011;57934;51.532;7.684;2023-09-19T06:38:45;8.73;;;2.88;;
70467;SDS011;57934;51.532;7.684;2023-09-19T06:41:11;13.13;;;2.83;;
70467;SDS011;57934;51.532;7.684;2023-09-19T06:43:37;10.05;;;2.10;;
70467;SDS011;57934;51.532;7.684;2023-09-19T06:46:05;10.93;;;3.08;;
70467;SDS011;57934;51.532;7.684;2023-09-19T06:48:33;12.45;;;2.63;;
70467;SDS011;57934;51.532;7.684;2023-09-19T06:50:59;10.30;;;3.00;;
70467;SDS011;57934;51.532;7.684;2023-09-19T06:53:31;15.57;;;2.97;;
70467;SDS011;57934;51.532;7.684;2023-09-19T06:56:01;9.93;;;2.55;;
70467;SDS011;57934;51.532;7.684;2023-09-19T06:58:28;12.50;;;2.47;;
70467;SDS011;57934;51.532;7.684;2023-09-19T07:00:54;15.10;;;3.35;;
70467;SDS011;57934;51.532;7.684;2023-09-19T07:03:22;12.77;;;2.85;;
70467;SDS011;57934;51.532;7.684;2023-09-19T07:05:51;14.85;;;3.40;;
70467;SDS011;57934;51.532;7.684;2023-09-19T07:08:18;13.18;;;3.25;;
70467;SDS011;57934;51.532;7.684;2023-09-19T07:10:44;16.02;;;2.72;;
70467;SDS011;57934;51.532;7.684;2023-09-19T07:13:31;15.30;;;2.90;;
70467;SDS011;57934;51.532;7.684;2023-09-19T07:15:58;13.90;;;2.30;;
70467;SDS011;57934;51.532;7.684;2023-09-19T07:18:25;13.30;;;2.55;;
70467;SDS011;57934;51.532;7.684;2023-09-19T07:20:56;13.82;;;2.85;;
70467;SDS011;57934;51.532;7.684;2023-09-19T07:23:26;9.77;;;2.13;;
70467;SDS011;57934;51.532;7.684;2023-09-19T07:25:56;14.27;;;2.60;;
70467;SDS011;57934;51.532;7.684;2023-09-19T07:28:23;13.48;;;2.63;;
70467;SDS011;57934;51.532;7.684;2023-09-19T07:30:49;11.50;;;2.20;;
70467;SDS011;57934;51.532;7.684;2023-09-19T07:33:15;13.73;;;2.50;;
70467;SDS011;57934;51.532;7.684;2023-09-19T07:35:44;11.38;;;2.70;;
70467;SDS011;57934;51.532;7.684;2023-09-19T07:38:12;14.40;;;2.42;;
70467;SDS011;57934;51.532;7.684;2023-09-19T07:40:38;11.20;;;2.70;;
70467;SDS011;57934;51.532;7.684;2023-09-19T07:43:04;15.13;;;3.70;;
70467;SDS011;57934;51.532;7.684;2023-09-19T07:45:30;16.13;;;3.08;;
70467;SDS011;57934;51.532;7.684;2023-09-19T07:47:57;13.85;;;2.80;;
70467;SDS011;57934;51.532;7.684;2023-09-19T07:50:23;14.23;;;3.00;;
70467;SDS011;57934;51.532;7.684;2023-09-19T07:52:52;9.65;;;2.80;;
70467;SDS011;57934;51.532;7.684;2023-09-19T07:55:18;14.20;;;2.90;;
70467;SDS011;57934;51.532;7.684;2023-09-19T07:57:48;8.18;;;2.58;;
70467;SDS011;57934;51.532;7.684;2023-09-19T08:00:15;14.38;;;2.53;;
70467;SDS011;57934;51.532;7.684;2023-09-19T08:02:41;10.05;;;2.40;;
70467;SDS011;57934;51.532;7.684;2023-09-19T08:05:09;14.20;;;2.40;;
70467;SDS011;57934;51.532;7.684;2023-09-19T08:07:36;10.43;;;2.90;;
70467;SDS011;57934;51.532;7.684;2023-09-19T08:10:06;14.85;;;3.03;;
70467;SDS011;57934;51.532;7.684;2023-09-19T08:12:42;14.05;;;3.30;;
70467;SDS011;57934;51.532;7.684;2023-09-19T08:15:16;7.97;;;2.15;;
70467;SDS011;57934;51.532;7.684;2023-09-19T08:17:45;12.05;;;2.80;;
70467;SDS011;57934;51.532;7.684;2023-09-19T08:20:12;12.90;;;2.70;;
70467;SDS011;57934;51.532;7.684;2023-09-19T08:22:50;12.80;;;3.63;;
70467;SDS011;57934;51.532;7.684;2023-09-19T08:25:18;12.20;;;3.05;;
70467;SDS011;57934;51.532;7.684;2023-09-19T08:27:45;10.57;;;3.00;;
70467;SDS011;57934;51.532;7.684;2023-09-19T08:30:18;14.65;;;2.88;;
70467;SDS011;57934;51.532;7.684;2023-09-19T08:33:10;15.18;;;2.63;;
70467;SDS011;57934;51.532;7.684;2023-09-19T08:35:36;11.55;;;2.38;;
70467;SDS011;57934;51.532;7.684;2023-09-19T08:38:03;12.20;;;2.80;;
70467;SDS011;57934;51.532;7.684;2023-09-19T08:40:30;18.23;;;3.58;;
70467;SDS011;57934;51.532;7.684;2023-09-19T08:42:59;8.38;;;2.65;;
70467;SDS011;57934;51.532;7.684;2023-09-19T08:45:26;13.05;;;3.28;;
70467;SDS011;57934;51.532;7.684;2023-09-19T08:50:30;15.25;;;2.97;;
70467;SDS011;57934;51.532;7.684;2023-09-19T08:52:58;9.27;;;2.60;;
70467;SDS011;57934;51.532;7.684;2023-09-19T08:55:27;8.40;;;3.00;;
70467;SDS011;57934;51.532;7.684;2023-09-19T08:57:59;13.50;;;2.83;;
70467;SDS011;57934;51.532;7.684;2023-09-19T09:00:28;11.77;;;2.70;;
70467;SDS011;57934;51.532;7.684;2023-09-19T09:02:54;11.15;;;2.45;;
70467;SDS011;57934;51.532;7.684;2023-09-19T09:05:22;12.27;;;2.35;;
70467;SDS011;57934;51.532;7.684;2023-09-19T09:07:50;8.35;;;2.35;;
70467;SDS011;57934;51.532;7.684;2023-09-19T09:10:22;7.57;;;2.35;;
70467;SDS011;57934;51.532;7.684;2023-09-19T09:12:49;9.02;;;2.50;;
70467;SDS011;57934;51.532;7.684;2023-09-19T09:15:19;11.05;;;2.80;;
70467;SDS011;57934;51.532;7.684;2023-09-19T09:17:47;9.98;;;2.65;;
70467;SDS011;57934;51.532;7.684;2023-09-19T09:20:16;10.93;;;3.40;;
70467;SDS011;57934;51.532;7.684;2023-09-19T09:22:54;15.18;;;2.92;;
70467;SDS011;57934;51.532;7.684;2023-09-19T09:25:22;7.97;;;2.58;;
70467;SDS011;57934;51.532;7.684;2023-09-19T09:28:00;11.18;;;2.72;;
70467;SDS011;57934;51.532;7.684;2023-09-19T09:30:33;11.10;;;2.63;;
70467;SDS011;57934;51.532;7.684;2023-09-19T09:33:09;8.80;;;2.28;;
70467;SDS011;57934;51.532;7.684;2023-09-19T09:35:37;14.25;;;3.10;;
70467;SDS011;57934;51.532;7.684;2023-09-19T09:38:13;8.18;;;2.40;;
70467;SDS011;57934;51.532;7.684;2023-09-19T09:40:46;10.88;;;3.03;;
70467;SDS011;57934;51.532;7.684;2023-09-19T09:43:27;10.10;;;2.78;;
70467;SDS011;57934;51.532;7.684;2023-09-19T09:46:12;8.30;;;2.40;;
70467;SDS011;57934;51.532;7.684;2023-09-19T09:48:55;12.18;;;2.33;;
70467;SDS011;57934;51.532;7.684;2023-09-19T09:51:42;9.00;;;2.70;;
70467;SDS011;57934;51.532;7.684;2023-09-19T09:54:23;8.50;;;2.33;;
70467;SDS011;57934;51.532;7.684;2023-09-19T09:56:54;8.77;;;2.75;;
70467;SDS011;57934;51.532;7.684;2023-09-19T09:59:20;11.38;;;2.30;;
70467;SDS011;57934;51.532;7.684;2023-09-19T10:01:50;8.00;;;2.92;;
70467;SDS011;57934;51.532;7.684;2023-09-19T10:04:28;9.75;;;2.10;;
70467;SDS011;57934;51.532;7.684;2023-09-19T10:07:02;10.55;;;2.50;;
70467;SDS011;57934;51.532;7.684;2023-09-19T10:09:45;7.70;;;2.45;;
70467;SDS011;57934;51.532;7.684;2023-09-19T10:12:13;8.48;;;2.63;;
70467;SDS011;57934;51.532;7.684;2023-09-19T10:14:43;5.53;;;2.22;;
70467;SDS011;57934;51.532;7.684;2023-09-19T10:17:12;8.80;;;2.33;;
70467;SDS011;57934;51.532;7.684;2023-09-19T10:19:52;8.38;;;2.75;;
70467;SDS011;57934;51.532;7.684;2023-09-19T10:22:23;10.85;;;2.47;;
70467;SDS011;57934;51.532;7.684;2023-09-19T10:24:55;11.88;;;2.45;;
70467;SDS011;57934;51.532;7.684;2023-09-19T10:27:28;9.52;;;2.40;;
70467;SDS011;57934;51.532;7.684;2023-09-19T10:29:55;9.50;;;2.70;;
70467;SDS011;57934;51.532;7.684;2023-09-19T10:32:25;6.80;;;2.15;;
70467;SDS011;57934;51.532;7.684;2023-09-19T10:34:53;8.88;;;2.78;;
70467;SDS011;57934;51.532;7.684;2023-09-19T10:37:22;5.88;;;2.75;;
70467;SDS011;57934;51.532;7.684;2023-09-19T10:39:51;6.30;;;2.70;;
70467;SDS011;57934;51.532;7.684;2023-09-19T10:42:19;8.20;;;2.50;;
70467;SDS011;57934;51.532;7.684;2023-09-19T10:44:50;6.47;;;2.40;;
70467;SDS011;57934;51.532;7.684;2023-09-19T10:47:21;11.10;;;2.65;;
70467;SDS011;57934;51.532;7.684;2023-09-19T10:49:50;10.00;;;2.50;;
70467;SDS011;57934;51.532;7.684;2023-09-19T10:52:17;9.63;;;2.60;;
70467;SDS011;57934;51.532;7.684;2023-09-19T10:54:49;4.90;;;2.15;;
70467;SDS011;57934;51.532;7.684;2023-09-19T10:57:24;8.82;;;3.10;;
70467;SDS011;57934;51.532;7.684;2023-09-19T11:00:03;9.75;;;2.17;;
70467;SDS011;57934;51.532;7.684;2023-09-19T11:05:40;6.93;;;2.55;;
70467;SDS011;57934;51.532;7.684;2023-09-19T11:08:07;5.57;;;1.90;;
70467;SDS011;57934;51.532;7.684;2023-09-19T11:10:44;8.35;;;2.67;;
70467;SDS011;57934;51.532;7.684;2023-09-19T11:13:24;5.72;;;2.22;;
70467;SDS011;57934;51.532;7.684;2023-09-19T11:21:53;16.73;;;3.35;;
70467;SDS011;57934;51.532;7.684;2023-09-19T11:26:50;5.30;;;2.05;;
70467;SDS011;57934;51.532;7.684;2023-09-19T11:29:27;8.20;;;2.70;;
70467;SDS011;57934;51.532;7.684;2023-09-19T11:31:57;9.98;;;2.88;;
70467;SDS011;57934;51.532;7.684;2023-09-19T11:34:41;10.85;;;2.63;;
70467;SDS011;57934;51.532;7.684;2023-09-19T11:39:39;7.82;;;2.50;;
70467;SDS011;57934;51.532;7.684;2023-09-19T11:48:20;5.72;;;2.10;;
70467;SDS011;57934;51.532;7.684;2023-09-19T11:50:51;6.25;;;2.45;;
70467;SDS011;57934;51.532;7.684;2023-09-19T11:53:19;5.13;;;2.00;;
70467;SDS011;57934;51.532;7.684;2023-09-19T11:55:46;6.88;;;2.50;;
70467;SDS011;57934;51.532;7.684;2023-09-19T11:58:16;6.30;;;2.50;;
70467;SDS011;57934;51.532;7.684;2023-09-19T12:00:44;5.00;;;2.38;;
70467;SDS011;57934;51.532;7.684;2023-09-19T12:03:11;4.28;;;2.35;;
70467;SDS011;57934;51.532;7.684;2023-09-19T12:05:40;10.70;;;2.28;;
70467;SDS011;57934;51.532;7.684;2023-09-19T12:08:09;5.82;;;2.15;;
70467;SDS011;57934;51.532;7.684;2023-09-19T12:10:46;8.10;;;2.78;;
70467;SDS011;57934;51.532;7.684;2023-09-19T12:13:17;5.00;;;2.47;;
70467;SDS011;57934;51.532;7.684;2023-09-19T12:15:44;8.73;;;2.38;;
70467;SDS011;57934;51.532;7.684;2023-09-19T12:18:29;10.57;;;2.60;;
70467;SDS011;57934;51.532;7.684;2023-09-19T12:20:55;10.13;;;2.40;;
70467;SDS011;57934;51.532;7.684;2023-09-19T12:23:24;11.07;;;2.30;;
70467;SDS011;57934;51.532;7.684;2023-09-19T12:25:51;6.60;;;2.60;;
70467;SDS011;57934;51.532;7.684;2023-09-19T12:28:21;7.47;;;2.60;;
70467;SDS011;57934;51.532;7.684;2023-09-19T12:30:56;8.27;;;2.20;;
70467;SDS011;57934;51.532;7.684;2023-09-19T12:33:23;7.50;;;2.42;;
70467;SDS011;57934;51.532;7.684;2023-09-19T12:35:51;7.57;;;2.10;;
70467;SDS011;57934;51.532;7.684;2023-09-19T12:38:25;8.20;;;1.95;;
70467;SDS011;57934;51.532;7.684;2023-09-19T12:40:57;10.02;;;2.20;;
70467;SDS011;57934;51.532;7.684;2023-09-19T12:43:26;8.88;;;1.98;;
70467;SDS011;57934;51.532;7.684;2023-09-19T12:45:54;6.90;;;2.05;;
70467;SDS011;57934;51.532;7.684;2023-09-19T12:48:23;7.07;;;1.85;;
70467;SDS011;57934;51.532;7.684;2023-09-19T12:53:32;8.65;;;2.53;;
70467;SDS011;57934;51.532;7.684;2023-09-19T12:56:03;7.45;;;2.42;;
70467;SDS011;57934;51.532;7.684;2023-09-19T12:58:34;8.70;;;2.15;;
70467;SDS011;57934;51.532;7.684;2023-09-19T13:01:14;7.38;;;2.22;;
70467;SDS011;57934;51.532;7.684;2023-09-19T13:03:40;8.80;;;2.15;;
70467;SDS011;57934;51.532;7.684;2023-09-19T13:06:06;8.60;;;2.38;;
70467;SDS011;57934;51.532;7.684;2023-09-19T13:08:38;7.13;;;1.90;;
70467;SDS011;57934;51.532;7.684;2023-09-19T13:13:47;6.20;;;1.88;;
70467;SDS011;57934;51.532;7.684;2023-09-19T13:16:15;8.25;;;2.53;;
70467;SDS011;57934;51.532;7.684;2023-09-19T13:18:49;6.35;;;2.03;;
70467;SDS011;57934;51.532;7.684;2023-09-19T13:21:31;6.10;;;2.05;;
70467;SDS011;57934;51.532;7.684;2023-09-19T13:24:18;4.68;;;2.00;;
70467;SDS011;57934;51.532;7.684;2023-09-19T13:26:51;5.55;;;1.80;;
70467;SDS011;57934;51.532;7.684;2023-09-19T13:29:17;6.68;;;2.08;;
70467;SDS011;57934;51.532;7.684;2023-09-19T13:31:50;6.30;;;2.05;;
70467;SDS011;57934;51.532;7.684;2023-09-19T13:34:19;7.78;;;1.98;;
70467;SDS011;57934;51.532;7.684;2023-09-19T13:36:46;9.50;;;2.63;;
70467;SDS011;57934;51.532;7.684;2023-09-19T13:39:14;7.13;;;2.05;;
70467;SDS011;57934;51.532;7.684;2023-09-19T13:41:43;4.60;;;2.00;;
70467;SDS011;57934;51.532;7.684;2023-09-19T13:44:10;4.82;;;2.25;;
70467;SDS011;57934;51.532;7.684;2023-09-19T13:46:36;5.97;;;2.00;;
70467;SDS011;57934;51.532;7.684;2023-09-19T13:49:03;6.03;;;1.70;;
70467;SDS011;57934;51.532;7.684;2023-09-19T13:51:32;4.45;;;2.10;;
70467;SDS011;57934;51.532;7.684;2023-09-19T13:53:58;5.35;;;2.20;;
70467;SDS011;57934;51.532;7.684;2023-09-19T13:56:27;5.65;;;1.85;;
70467;SDS011;57934;51.532;7.684;2023-09-19T13:58:57;6.30;;;2.10;;
70467;SDS011;57934;51.532;7.684;2023-09-19T14:01:23;7.32;;;1.92;;
70467;SDS011;57934;51.532;7.684;2023-09-19T14:03:49;4.68;;;1.48;;
70467;SDS011;57934;51.532;7.684;2023-09-19T14:06:17;5.25;;;1.58;;
70467;SDS011;57934;51.532;7.684;2023-09-19T14:08:44;3.67;;;1.52;;
70467;SDS011;57934;51.532;7.684;2023-09-19T14:11:13;4.28;;;1.88;;
70467;SDS011;57934;51.532;7.684;2023-09-19T14:13:40;4.63;;;1.75;;
70467;SDS011;57934;51.532;7.684;2023-09-19T14:16:06;4.22;;;1.35;;
70467;SDS011;57934;51.532;7.684;2023-09-19T14:18:34;5.38;;;2.20;;
70467;SDS011;57934;51.532;7.684;2023-09-19T14:21:04;4.22;;;1.25;;
70467;SDS011;57934;51.532;7.684;2023-09-19T14:23:35;3.90;;;1.13;;
70467;SDS011;57934;51.532;7.684;2023-09-19T14:26:02;4.10;;;1.58;;
70467;SDS011;57934;51.532;7.684;2023-09-19T14:28:28;6.15;;;1.50;;
70467;SDS011;57934;51.532;7.684;2023-09-19T14:30:55;6.15;;;1.55;;
70467;SDS011;57934;51.532;7.684;2023-09-19T14:33:21;5.72;;;1.65;;
70467;SDS011;57934;51.532;7.684;2023-09-19T14:35:47;7.32;;;1.60;;
70467;SDS011;57934;51.532;7.684;2023-09-19T14:38:14;3.15;;;1.40;;
70467;SDS011;57934;51.532;7.684;2023-09-19T14:40:40;5.43;;;2.08;;
70467;SDS011;57934;51.532;7.684;2023-09-19T14:43:07;4.25;;;1.40;;
70467;SDS011;57934;51.532;7.684;2023-09-19T14:45:35;5.38;;;1.52;;
70467;SDS011;57934;51.532;7.684;2023-09-19T14:48:01;4.25;;;1.50;;
70467;SDS011;57934;51.532;7.684;2023-09-19T14:50:31;4.40;;;1.23;;
70467;SDS011;57934;51.532;7.684;2023-09-19T14:52:57;8.45;;;1.80;;
70467;SDS011;57934;51.532;7.684;2023-09-19T14:55:27;8.80;;;1.40;;
70467;SDS011;57934;51.532;7.684;2023-09-19T14:57:55;6.13;;;1.23;;
70467;SDS011;57934;51.532;7.684;2023-09-19T15:00:24;4.20;;;1.20;;
70467;SDS011;57934;51.532;7.684;2023-09-19T15:02:50;2.65;;;1.10;;
70467;SDS011;57934;51.532;7.684;2023-09-19T15:05:16;3.47;;;1.00;;
70467;SDS011;57934;51.532;7.684;2023-09-19T15:07:46;1.67;;;1.05;;
70467;SDS011;57934;51.532;7.684;2023-09-19T15:10:12;3.75;;;1.00;;
70467;SDS011;57934;51.532;7.684;2023-09-19T15:12:39;3.40;;;1.17;;
70467;SDS011;57934;51.532;7.684;2023-09-19T15:15:05;4.32;;;1.00;;
70467;SDS011;57934;51.532;7.684;2023-09-19T15:17:34;5.03;;;1.05;;
70467;SDS011;57934;51.532;7.684;2023-09-19T15:20:03;5.13;;;1.00;;
70467;SDS011;57934;51.532;7.684;2023-09-19T15:22:35;3.58;;;0.93;;
70467;SDS011;57934;51.532;7.684;2023-09-19T15:25:02;3.67;;;1.00;;
70467;SDS011;57934;51.532;7.684;2023-09-19T15:27:29;5.13;;;1.20;;
70467;SDS011;57934;51.532;7.684;2023-09-19T15:29:57;1.63;;;1.00;;
70467;SDS011;57934;51.532;7.684;2023-09-19T15:32:26;1.42;;;0.80;;
70467;SDS011;57934;51.532;7.684;2023-09-19T15:34:52;4.07;;;1.00;;
70467;SDS011;57934;51.532;7.684;2023-09-19T15:37:18;1.40;;;0.70;;
70467;SDS011;57934;51.532;7.684;2023-09-19T15:39:46;3.22;;;0.90;;
70467;SDS011;57934;51.532;7.684;2023-09-19T15:42:12;6.25;;;1.08;;
70467;SDS011;57934;51.532;7.684;2023-09-19T15:44:38;5.03;;;1.42;;